Time;durP1;ratioP1;P1;durP2;ratioP2;P2;SDS_P1;SDS_P2;PMS_P1;PMS_P2;Temp;Humidity;BMP_temperature;BMP_pressure;BME280_temperature;BME280_humidity;BME280_pressure;Samples;Min_cycle;Max_cycle;Signal;HPM_P1;HPM_P2
2022/10/21 00:00:07;;;;;;;;;;;;;;;;;;351320;28;837;-68
2022/10/21 00:00:17;;;;;;;;;;;;;;;;;;351289;28;1004;-68
2022/10/21 00:00:28;;;;;;;;;;;;;;;;;;351332;28;786;-68
2022/10/21 00:00:38;;;;;;;;;;;;;;;;;;351263;28;928;-67
2022/10/21 00:00:49;;;;;;;;;;;;;;;;;;351345;28;928;-68
2022/10/21 00:00:59;;;;;;;;;;;;;;;;;;351241;28;897;-68
2022/10/21 00:01:10;;;;;;;;;;;;;;;;;;351336;28;960;-67
2022/10/21 00:01:20;;;;;;;;;;;;;;;;;;351238;28;992;-68
2022/10/21 00:01:30;;;;;;;;;;;;;;;;;;351501;28;1055;-68
2022/10/21 00:01:40;;;;;;;;;;;;;;;;;;351592;28;825;-67
2022/10/21 00:01:50;;;;;;;;;;;;;;;;;;351576;28;967;-67
2022/10/21 00:02:01;;;;;;;;;;;;;;;;;;351494;28;836;-68
2022/10/21 00:02:11;;;;;;;;;;;;;;;;;;351624;28;975;-67
2022/10/21 00:02:21;;;;;;;;;;;;;;;;;;351539;28;912;-67
2022/10/21 00:02:31;;;;;;;;;;;;;;;;;;351663;28;817;-67
2022/10/21 00:02:42;;;;;;;;;;;;;;;;;;351583;28;932;-67
2022/10/21 00:02:52;;;;;;;;;;;;;;;;;;351562;28;948;-68
2022/10/21 00:03:02;;;;;;;;;;;;;;;;;;351561;28;1186;-67
2022/10/21 00:03:13;;;;;;;;;;;;;;;;;;351538;28;932;-68
2022/10/21 00:03:24;;;;;;;;;;;;;;;;;;351488;28;1972;-67
2022/10/21 00:03:34;;;;;;;;;;;;;;;;;;351587;28;782;-67
2022/10/21 00:03:44;;;;;;;;;;;;;;;;;;351579;28;920;-67
2022/10/21 00:03:54;;;;;;;;;;;;;;;;;;351649;28;865;-67
2022/10/21 00:04:05;;;;;;;;;;;;;;;;;;351517;28;912;-67
2022/10/21 00:04:15;;;;;;;;;;;;;;;;;;351582;28;988;-67
2022/10/21 00:04:25;;;;;;;;;;;;;;;;;;351551;28;948;-67
2022/10/21 00:04:35;;;;;;;;;;;;;;;;;;351544;28;1007;-68
2022/10/21 00:04:45;;;;;;;;;;;;;;;;;;351572;28;849;-67
2022/10/21 00:04:56;;;;;;;;;;;;;;;;;;351598;28;928;-67
2022/10/21 00:05:06;;;;;;;;;;;;;;;;;;351573;28;1142;-68
2022/10/21 00:05:16;;;;;;;;;;;;;;;;;;351273;28;1160;-67
2022/10/21 00:05:27;;;;;;;;;;;;;;;;;;351504;28;746;-67
2022/10/21 00:05:37;;;;;;;;;;;;;;;;;;351544;28;988;-67
2022/10/21 00:05:48;;;;;;;;;;;;;;;;;;351546;28;1035;-68
2022/10/21 00:05:58;;;;;;;;;;;;;;;;;;351574;28;979;-67
2022/10/21 00:06:09;;;;;;;;;;;;;;;;;;351533;28;998;-67
2022/10/21 00:06:19;;;;;;;;;;;;;;;;;;351590;28;850;-68
2022/10/21 00:06:29;;;;;;;;;;;;;;;;;;351570;28;921;-68
2022/10/21 00:06:39;;;;;;;;;;;;;;;;;;351022;28;2012;-67
2022/10/21 00:06:50;;;;;;;;;;;;;;;;;;352983;28;940;-67
2022/10/21 00:07:00;;;;;;;;;;;;;;;;;;351255;28;1201;-67
2022/10/21 00:07:10;;;;;;;;;;;;;;;;;;350802;28;2028;-67
2022/10/21 00:07:20;;;;;;;;;;;;;;;;;;350335;28;1347;-67
2022/10/21 00:07:30;;;;;;;;;;;;;;;;;;351084;28;1492;-67
2022/10/21 00:07:40;;;;;;;;;;;;;;;;;;349986;28;1583;-68
2022/10/21 00:07:51;;;;;;;;;;;;;;;;;;350045;28;865;-67
2022/10/21 00:08:01;;;;;;;;;;;;;;;;;;350100;28;877;-67
2022/10/21 00:08:11;;;;;;;;;;;;;;;;;;350070;28;1191;-68
2022/10/21 00:08:22;;;;;;;;;;;;;;;;;;349605;28;1320;-67
2022/10/21 00:08:32;;;;;;;;;;;;;;;;;;349381;28;1023;-68
2022/10/21 00:08:43;;;;;;;;;;;;;;;;;;348616;28;948;-68
2022/10/21 00:08:53;;;;;;;;;;;;;;;;;;348984;28;952;-68
2022/10/21 00:09:03;;;;;;;;;;;;;;;;;;350232;28;766;-68
2022/10/21 00:09:13;;;;;;;;;;;;;;;;;;350151;28;979;-68
2022/10/21 00:09:23;;;;;;;;;;;;;;;;;;350190;28;1011;-68
2022/10/21 00:09:34;;;;;;;;;;;;;;;;;;350238;28;1019;-67
2022/10/21 00:09:44;;;;;;;;;;;;;;;;;;350135;28;825;-67
2022/10/21 00:09:54;;;;;;;;;;;;;;;;;;350105;28;968;-68
2022/10/21 00:10:05;;;;;;;;;;;;;;;;;;350175;28;972;-67
2022/10/21 00:10:15;;;;;;;;;;;;;;;;;;350138;28;1015;-67
2022/10/21 00:10:26;;;;;;;;;;;;;;;;;;350128;28;968;-68
2022/10/21 00:10:36;;;;;;;;;;;;;;;;;;350178;28;889;-67
2022/10/21 00:10:49;;;;;;;;;;;;;;;;;;350176;28;909;-68
2022/10/21 00:11:00;;;;;;;;;;;;;;;;;;350136;28;789;-67
2022/10/21 00:11:10;;;;;;;;;;;;;;;;;;350223;28;853;-67
2022/10/21 00:11:21;;;;;;;;;;;;;;;;;;350200;28;912;-67
2022/10/21 00:11:31;;;;;;;;;;;;;;;;;;350127;28;980;-68
2022/10/21 00:11:41;;;;;;;;;;;;;;;;;;350185;28;837;-68
2022/10/21 00:11:51;;;;;;;;;;;;;;;;;;350115;28;971;-67
2022/10/21 00:12:01;;;;;;;;;;;;;;;;;;350153;28;929;-67
2022/10/21 00:12:12;;;;;;;;;;;;;;;;;;350172;28;933;-68
2022/10/21 00:12:22;;;;;;;;;;;;;;;;;;350157;28;911;-67
2022/10/21 00:12:32;;;;;;;;;;;;;;;;;;350238;28;921;-67
2022/10/21 00:12:43;;;;;;;;;;;;;;;;;;350168;28;901;-68
2022/10/21 00:12:53;;;;;;;;;;;;;;;;;;350174;28;817;-68
2022/10/21 00:13:03;;;;;;;;;;;;;;;;;;350155;28;905;-67
2022/10/21 00:13:13;;;;;;;;;;;;;;;;;;350194;28;956;-67
2022/10/21 00:13:24;;;;;;;;;;;;;;;;;;350218;28;774;-67
2022/10/21 00:13:35;;;;;;;;;;;;;;;;;;350134;28;956;-67
2022/10/21 00:13:45;;;;;;;;;;;;;;;;;;350163;28;921;-67
2022/10/21 00:13:55;;;;;;;;;;;;;;;;;;350080;28;813;-67
2022/10/21 00:14:06;;;;;;;;;;;;;;;;;;350115;28;995;-68
2022/10/21 00:14:16;;;;;;;;;;;;;;;;;;350196;28;933;-68
2022/10/21 00:14:26;;;;;;;;;;;;;;;;;;350182;28;897;-68
2022/10/21 00:14:36;;;;;;;;;;;;;;;;;;350142;28;908;-67
2022/10/21 00:14:46;;;;;;;;;;;;;;;;;;349827;28;1457;-67
2022/10/21 00:14:57;;;;;;;;;;;;;;;;;;350114;28;1027;-67
2022/10/21 00:15:08;;;;;;;;;;;;;;;;;;350146;28;971;-67
2022/10/21 00:15:18;;;;;;;;;;;;;;;;;;350123;28;1370;-67
2022/10/21 00:15:28;;;;;;;;;;;;;;;;;;350231;28;822;-68
2022/10/21 00:15:38;;;;;;;;;;;;;;;;;;350146;28;925;-67
2022/10/21 00:16:02;;;;;;;;;;;;;;;;;;350121;28;1063;-67
2022/10/21 00:16:15;;;;;;;;;;;;;;;;;;350114;28;936;-67
2022/10/21 00:16:25;;;;;;;;;;;;;;;;;;350186;28;869;-67
2022/10/21 00:16:35;;;;;;;;;;;;;;;;;;350174;28;944;-67
2022/10/21 00:16:45;;;;;;;;;;;;;;;;;;350109;28;931;-67
2022/10/21 00:16:57;;;;;;;;;;;;;;;;;;350138;28;1028;-67
2022/10/21 00:17:07;;;;;;;;;;;;;;;;;;350113;28;959;-68
2022/10/21 00:17:17;;;;;;;;;;;;;;;;;;350142;28;1011;-68
2022/10/21 00:17:27;;;;;;;;;;;;;;;;;;350186;28;857;-67
2022/10/21 00:17:39;;;;;;;;;;;;;;;;;;350151;28;960;-67
2022/10/21 00:17:49;;;;;;;;;;;;;;;;;;350153;28;968;-67
2022/10/21 00:17:59;;;;;;;;;;;;;;;;;;350100;28;936;-67
2022/10/21 00:18:09;;;;;;;;;;;;;;;;;;350203;28;928;-67
2022/10/21 00:18:20;;;;;;;;;;;;;;;;;;350104;28;913;-67
2022/10/21 00:18:30;;;;;;;;;;;;;;;;;;350127;28;1224;-67
2022/10/21 00:18:42;;;;;;;;;;;;;;;;;;350187;28;909;-68
2022/10/21 00:18:52;;;;;;;;;;;;;;;;;;350144;28;925;-68
2022/10/21 00:19:02;;;;;;;;;;;;;;;;;;350183;28;963;-67
2022/10/21 00:19:12;;;;;;;;;;;;;;;;;;350212;28;916;-67
2022/10/21 00:19:23;;;;;;;;;;;;;;;;;;350191;28;1718;-67
2022/10/21 00:19:33;;;;;;;;;;;;;;;;;;350199;28;979;-68
2022/10/21 00:19:43;;;;;;;;;;;;;;;;;;350119;28;913;-67
2022/10/21 00:19:53;;;;;;;;;;;;;;;;;;350168;28;972;-67
2022/10/21 00:20:04;;;;;;;;;;;;;;;;;;349982;28;1704;-67
2022/10/21 00:20:15;;;;;;;;;;;;;;;;;;349872;28;1573;-67
2022/10/21 00:20:25;;;;;;;;;;;;;;;;;;351587;28;842;-67
2022/10/21 00:20:38;;;;;;;;;;;;;;;;;;351533;28;909;-67
2022/10/21 00:20:48;;;;;;;;;;;;;;;;;;351626;28;925;-67
2022/10/21 00:20:59;;;;;;;;;;;;;;;;;;351554;28;1098;-68
2022/10/21 00:21:10;;;;;;;;;;;;;;;;;;351582;28;960;-67
2022/10/21 00:21:21;;;;;;;;;;;;;;;;;;351524;28;1015;-68
2022/10/21 00:21:31;;;;;;;;;;;;;;;;;;351559;28;929;-67
2022/10/21 00:21:41;;;;;;;;;;;;;;;;;;351548;28;913;-67
2022/10/21 00:21:51;;;;;;;;;;;;;;;;;;351520;28;1112;-67
2022/10/21 00:22:01;;;;;;;;;;;;;;;;;;351561;28;830;-68
2022/10/21 00:22:12;;;;;;;;;;;;;;;;;;351499;28;976;-68
2022/10/21 00:22:22;;;;;;;;;;;;;;;;;;351629;28;819;-68
2022/10/21 00:22:32;;;;;;;;;;;;;;;;;;351575;28;999;-67
2022/10/21 00:22:42;;;;;;;;;;;;;;;;;;351559;28;971;-67
2022/10/21 00:22:52;;;;;;;;;;;;;;;;;;351627;28;786;-67
2022/10/21 00:23:03;;;;;;;;;;;;;;;;;;351495;28;932;-67
2022/10/21 00:23:13;;;;;;;;;;;;;;;;;;351572;28;913;-67
2022/10/21 00:23:23;;;;;;;;;;;;;;;;;;351480;28;1905;-68
2022/10/21 00:23:34;;;;;;;;;;;;;;;;;;351588;28;924;-67
2022/10/21 00:23:44;;;;;;;;;;;;;;;;;;351480;28;1136;-68
2022/10/21 00:23:55;;;;;;;;;;;;;;;;;;351493;28;1112;-68
2022/10/21 00:24:05;;;;;;;;;;;;;;;;;;351558;28;929;-68
2022/10/21 00:24:15;;;;;;;;;;;;;;;;;;351490;28;1003;-68
2022/10/21 00:24:25;;;;;;;;;;;;;;;;;;351340;28;998;-67
2022/10/21 00:24:35;;;;;;;;;;;;;;;;;;351543;28;953;-68
2022/10/21 00:24:46;;;;;;;;;;;;;;;;;;349990;28;904;-67
2022/10/21 00:24:56;;;;;;;;;;;;;;;;;;350021;28;1031;-68
2022/10/21 00:25:07;;;;;;;;;;;;;;;;;;350022;28;769;-67
2022/10/21 00:25:17;;;;;;;;;;;;;;;;;;350043;28;1103;-67
2022/10/21 00:25:27;;;;;;;;;;;;;;;;;;350084;28;1003;-67
2022/10/21 00:25:38;;;;;;;;;;;;;;;;;;350074;28;913;-67
2022/10/21 00:25:48;;;;;;;;;;;;;;;;;;350033;28;968;-67
2022/10/21 00:25:58;;;;;;;;;;;;;;;;;;350079;28;956;-67
2022/10/21 00:26:09;;;;;;;;;;;;;;;;;;350100;28;845;-67
2022/10/21 00:26:19;;;;;;;;;;;;;;;;;;350001;28;974;-67
2022/10/21 00:26:30;;;;;;;;;;;;;;;;;;350040;28;812;-67
2022/10/21 00:26:40;;;;;;;;;;;;;;;;;;350533;28;936;-68
2022/10/21 00:26:50;;;;;;;;;;;;;;;;;;351494;28;921;-67
2022/10/21 00:27:01;;;;;;;;;;;;;;;;;;351571;28;913;-68
2022/10/21 00:27:12;;;;;;;;;;;;;;;;;;351569;28;1042;-67
2022/10/21 00:27:22;;;;;;;;;;;;;;;;;;352788;28;1432;-68
2022/10/21 00:27:32;;;;;;;;;;;;;;;;;;352887;28;944;-68
2022/10/21 00:27:43;;;;;;;;;;;;;;;;;;352842;28;1023;-68
2022/10/21 00:27:53;;;;;;;;;;;;;;;;;;352796;28;944;-68
2022/10/21 00:28:03;;;;;;;;;;;;;;;;;;352960;28;447;-67
2022/10/21 00:28:13;;;;;;;;;;;;;;;;;;352832;28;924;-68
2022/10/21 00:28:24;;;;;;;;;;;;;;;;;;352800;28;910;-68
2022/10/21 00:28:34;;;;;;;;;;;;;;;;;;352836;28;988;-68
2022/10/21 00:28:45;;;;;;;;;;;;;;;;;;352853;28;1008;-67
2022/10/21 00:28:55;;;;;;;;;;;;;;;;;;352793;28;1107;-68
2022/10/21 00:29:06;;;;;;;;;;;;;;;;;;352896;28;933;-67
2022/10/21 00:29:16;;;;;;;;;;;;;;;;;;352415;28;1144;-67
2022/10/21 00:29:26;;;;;;;;;;;;;;;;;;351570;28;901;-68
2022/10/21 00:29:36;;;;;;;;;;;;;;;;;;351535;28;920;-67
2022/10/21 00:29:46;;;;;;;;;;;;;;;;;;351533;28;1035;-68
2022/10/21 00:29:57;;;;;;;;;;;;;;;;;;351556;28;991;-68
2022/10/21 00:30:07;;;;;;;;;;;;;;;;;;351572;28;960;-68
2022/10/21 00:30:17;;;;;;;;;;;;;;;;;;351502;28;960;-67
2022/10/21 00:30:28;;;;;;;;;;;;;;;;;;351464;28;917;-67
2022/10/21 00:30:44;;;;;;;;;;;;;;;;;;351520;28;809;-68
2022/10/21 00:30:55;;;;;;;;;;;;;;;;;;351513;28;976;-67
2022/10/21 00:31:07;;;;;;;;;;;;;;;;;;351595;28;837;-67
2022/10/21 00:31:17;;;;;;;;;;;;;;;;;;351540;28;884;-67
2022/10/21 00:31:27;;;;;;;;;;;;;;;;;;351542;28;901;-67
2022/10/21 00:31:37;;;;;;;;;;;;;;;;;;351519;28;926;-67
2022/10/21 00:31:47;;;;;;;;;;;;;;;;;;351513;28;1088;-67
2022/10/21 00:31:58;;;;;;;;;;;;;;;;;;351545;28;904;-67
2022/10/21 00:32:08;;;;;;;;;;;;;;;;;;351565;28;937;-67
2022/10/21 00:32:18;;;;;;;;;;;;;;;;;;351473;28;960;-67
2022/10/21 00:32:28;;;;;;;;;;;;;;;;;;351152;28;1499;-67
2022/10/21 00:32:38;;;;;;;;;;;;;;;;;;351506;28;995;-67
2022/10/21 00:32:49;;;;;;;;;;;;;;;;;;350393;28;1350;-67
2022/10/21 00:32:59;;;;;;;;;;;;;;;;;;351011;28;1653;-67
2022/10/21 00:33:10;;;;;;;;;;;;;;;;;;351582;28;976;-67
2022/10/21 00:33:20;;;;;;;;;;;;;;;;;;351457;28;921;-67
2022/10/21 00:33:30;;;;;;;;;;;;;;;;;;351523;28;1011;-67
2022/10/21 00:33:41;;;;;;;;;;;;;;;;;;351565;28;912;-66
2022/10/21 00:33:51;;;;;;;;;;;;;;;;;;350823;28;1969;-67
2022/10/21 00:34:01;;;;;;;;;;;;;;;;;;349912;28;1530;-66
2022/10/21 00:34:11;;;;;;;;;;;;;;;;;;350618;28;1504;-68
2022/10/21 00:34:21;;;;;;;;;;;;;;;;;;351497;28;912;-67
2022/10/21 00:34:32;;;;;;;;;;;;;;;;;;351557;28;979;-67
2022/10/21 00:34:42;;;;;;;;;;;;;;;;;;351437;28;1001;-67
2022/10/21 00:34:52;;;;;;;;;;;;;;;;;;350064;28;1366;-67
2022/10/21 00:35:03;;;;;;;;;;;;;;;;;;350126;28;944;-67
2022/10/21 00:35:13;;;;;;;;;;;;;;;;;;349861;28;1113;-67
2022/10/21 00:35:23;;;;;;;;;;;;;;;;;;350148;28;967;-67
2022/10/21 00:35:33;;;;;;;;;;;;;;;;;;350097;28;925;-67
2022/10/21 00:35:49;;;;;;;;;;;;;;;;;;350157;28;991;-67
2022/10/21 00:36:01;;;;;;;;;;;;;;;;;;350160;28;920;-67
2022/10/21 00:36:14;;;;;;;;;;;;;;;;;;350155;28;920;-67
2022/10/21 00:36:25;;;;;;;;;;;;;;;;;;350064;28;940;-67
2022/10/21 00:36:35;;;;;;;;;;;;;;;;;;350112;28;937;-66
2022/10/21 00:36:45;;;;;;;;;;;;;;;;;;349836;28;1548;-67
2022/10/21 00:36:55;;;;;;;;;;;;;;;;;;350061;28;947;-67
2022/10/21 00:37:06;;;;;;;;;;;;;;;;;;350201;28;886;-67
2022/10/21 00:37:16;;;;;;;;;;;;;;;;;;350137;28;924;-67
2022/10/21 00:37:28;;;;;;;;;;;;;;;;;;350127;28;790;-67
2022/10/21 00:37:38;;;;;;;;;;;;;;;;;;350154;28;975;-67
2022/10/21 00:37:48;;;;;;;;;;;;;;;;;;350121;28;1056;-67
2022/10/21 00:37:59;;;;;;;;;;;;;;;;;;350182;28;824;-67
2022/10/21 00:38:09;;;;;;;;;;;;;;;;;;350128;28;984;-67
2022/10/21 00:38:19;;;;;;;;;;;;;;;;;;350173;28;929;-66
2022/10/21 00:38:30;;;;;;;;;;;;;;;;;;350164;28;929;-67
2022/10/21 00:38:45;;;;;;;;;;;;;;;;;;350104;28;920;-67
2022/10/21 00:38:55;;;;;;;;;;;;;;;;;;350077;28;1031;-67
2022/10/21 00:39:05;;;;;;;;;;;;;;;;;;350170;28;897;-66
2022/10/21 00:39:15;;;;;;;;;;;;;;;;;;350168;28;982;-66
2022/10/21 00:39:26;;;;;;;;;;;;;;;;;;350072;28;869;-68
2022/10/21 00:39:36;;;;;;;;;;;;;;;;;;350126;28;837;-67
2022/10/21 00:39:46;;;;;;;;;;;;;;;;;;350155;28;924;-67
2022/10/21 00:39:57;;;;;;;;;;;;;;;;;;350070;28;869;-66
2022/10/21 00:40:08;;;;;;;;;;;;;;;;;;350113;28;921;-67
2022/10/21 00:40:18;;;;;;;;;;;;;;;;;;350154;28;814;-67
2022/10/21 00:40:28;;;;;;;;;;;;;;;;;;349796;28;1319;-67
2022/10/21 00:40:38;;;;;;;;;;;;;;;;;;350186;28;1494;-67
2022/10/21 00:40:49;;;;;;;;;;;;;;;;;;350117;28;850;-67
2022/10/21 00:40:59;;;;;;;;;;;;;;;;;;350046;28;992;-67
2022/10/21 00:41:09;;;;;;;;;;;;;;;;;;350179;28;862;-67
2022/10/21 00:41:20;;;;;;;;;;;;;;;;;;350192;28;1000;-67
2022/10/21 00:41:30;;;;;;;;;;;;;;;;;;350032;28;752;-67
2022/10/21 00:41:40;;;;;;;;;;;;;;;;;;350135;28;846;-67
2022/10/21 00:41:51;;;;;;;;;;;;;;;;;;350186;28;805;-67
2022/10/21 00:42:02;;;;;;;;;;;;;;;;;;350133;28;794;-67
2022/10/21 00:42:14;;;;;;;;;;;;;;;;;;350109;28;917;-67
2022/10/21 00:42:29;;;;;;;;;;;;;;;;;;350133;28;932;-67
2022/10/21 00:42:40;;;;;;;;;;;;;;;;;;350139;28;983;-67
2022/10/21 00:42:50;;;;;;;;;;;;;;;;;;350121;28;983;-67
2022/10/21 00:43:00;;;;;;;;;;;;;;;;;;350067;28;909;-68
2022/10/21 00:43:11;;;;;;;;;;;;;;;;;;350170;28;925;-67
2022/10/21 00:43:22;;;;;;;;;;;;;;;;;;350137;28;904;-68
2022/10/21 00:43:32;;;;;;;;;;;;;;;;;;350009;28;1914;-68
2022/10/21 00:43:52;;;;;;;;;;;;;;;;;;350133;28;837;-68
2022/10/21 00:44:04;;;;;;;;;;;;;;;;;;350138;28;952;-67
2022/10/21 00:44:14;;;;;;;;;;;;;;;;;;350121;28;908;-67
2022/10/21 00:44:25;;;;;;;;;;;;;;;;;;350165;28;845;-67
2022/10/21 00:44:36;;;;;;;;;;;;;;;;;;350112;28;866;-67
2022/10/21 00:45:04;;;;;;;;;;;;;;;;;;350126;28;916;-66
2022/10/21 00:45:16;;;;;;;;;;;;;;;;;;350115;28;805;-67
2022/10/21 00:45:27;;;;;;;;;;;;;;;;;;350119;28;1094;-67
2022/10/21 00:45:38;;;;;;;;;;;;;;;;;;350093;28;913;-67
2022/10/21 00:45:49;;;;;;;;;;;;;;;;;;350162;28;853;-67
2022/10/21 00:46:04;;;;;;;;;;;;;;;;;;350151;28;782;-67
2022/10/21 00:46:17;;;;;;;;;;;;;;;;;;350119;28;988;-67
2022/10/21 00:46:36;;;;;;;;;;;;;;;;;;350133;28;957;-67
2022/10/21 00:46:55;;;;;;;;;;;;;;;;;;350123;28;901;-67
2022/10/21 00:47:07;;;;;;;;;;;;;;;;;;350065;28;900;-67
2022/10/21 00:47:20;;;;;;;;;;;;;;;;;;350159;28;953;-67
2022/10/21 00:47:34;;;;;;;;;;;;;;;;;;350167;28;941;-67
2022/10/21 00:47:48;;;;;;;;;;;;;;;;;;350093;28;1136;-67
2022/10/21 00:48:24;;;;;;;;;;;;;;;;;;350108;28;861;-68
2022/10/21 00:48:37;;;;;;;;;;;;;;;;;;346100;28;1261;-68
2022/10/21 00:48:51;;;;;;;;;;;;;;;;;;350124;28;965;-68
2022/10/21 00:49:05;;;;;;;;;;;;;;;;;;351005;28;1303;-67
2022/10/21 00:49:38;;;;;;;;;;;;;;;;;;351517;28;741;-67
2022/10/21 00:49:56;;;;;;;;;;;;;;;;;;347179;28;968;-67
2022/10/21 00:50:16;;;;;;;;;;;;;;;;;;350601;28;1146;-67
2022/10/21 00:50:29;;;;;;;;;;;;;;;;;;351535;28;974;-67
2022/10/21 00:50:47;;;;;;;;;;;;;;;;;;351453;28;949;-67
2022/10/21 00:50:59;;;;;;;;;;;;;;;;;;351527;28;837;-67
2022/10/21 00:51:11;;;;;;;;;;;;;;;;;;351548;28;964;-67
2022/10/21 00:51:21;;;;;;;;;;;;;;;;;;351496;28;813;-67
2022/10/21 00:51:32;;;;;;;;;;;;;;;;;;351447;28;1668;-67
2022/10/21 00:51:44;;;;;;;;;;;;;;;;;;351524;28;920;-67
2022/10/21 00:51:58;;;;;;;;;;;;;;;;;;351516;28;1055;-67
2022/10/21 00:52:12;;;;;;;;;;;;;;;;;;351505;28;944;-67
2022/10/21 00:52:22;;;;;;;;;;;;;;;;;;351512;28;971;-67
2022/10/21 00:52:33;;;;;;;;;;;;;;;;;;351493;28;992;-67
2022/10/21 00:52:43;;;;;;;;;;;;;;;;;;351560;28;774;-67
2022/10/21 00:52:55;;;;;;;;;;;;;;;;;;351565;28;825;-67
2022/10/21 00:53:06;;;;;;;;;;;;;;;;;;351511;28;917;-68
2022/10/21 00:53:17;;;;;;;;;;;;;;;;;;351508;28;991;-67
2022/10/21 00:53:27;;;;;;;;;;;;;;;;;;351492;28;889;-67
2022/10/21 00:53:39;;;;;;;;;;;;;;;;;;351520;28;1057;-67
2022/10/21 00:53:50;;;;;;;;;;;;;;;;;;351474;28;928;-68
2022/10/21 00:54:01;;;;;;;;;;;;;;;;;;351475;28;1002;-67
2022/10/21 00:54:11;;;;;;;;;;;;;;;;;;351490;28;1088;-67
2022/10/21 00:54:23;;;;;;;;;;;;;;;;;;351530;28;853;-67
2022/10/21 00:54:33;;;;;;;;;;;;;;;;;;351520;28;1023;-67
2022/10/21 00:54:45;;;;;;;;;;;;;;;;;;351499;28;924;-67
2022/10/21 00:54:56;;;;;;;;;;;;;;;;;;351417;28;1012;-68
2022/10/21 00:55:07;;;;;;;;;;;;;;;;;;351555;28;885;-67
2022/10/21 00:55:17;;;;;;;;;;;;;;;;;;350605;28;1453;-67
2022/10/21 00:55:30;;;;;;;;;;;;;;;;;;350093;28;937;-67
2022/10/21 00:55:44;;;;;;;;;;;;;;;;;;350117;28;949;-67
2022/10/21 00:55:58;;;;;;;;;;;;;;;;;;350099;28;921;-68
2022/10/21 00:56:10;;;;;;;;;;;;;;;;;;348659;28;814;-67
2022/10/21 00:56:25;;;;;;;;;;;;;;;;;;348573;28;976;-68
2022/10/21 00:56:36;;;;;;;;;;;;;;;;;;348670;28;937;-67
2022/10/21 00:56:47;;;;;;;;;;;;;;;;;;348568;28;917;-68
2022/10/21 00:56:57;;;;;;;;;;;;;;;;;;348606;28;913;-67
2022/10/21 00:57:08;;;;;;;;;;;;;;;;;;348671;28;948;-67
2022/10/21 00:57:20;;;;;;;;;;;;;;;;;;349872;28;1307;-68
2022/10/21 00:57:33;;;;;;;;;;;;;;;;;;350062;28;830;-67
2022/10/21 00:57:43;;;;;;;;;;;;;;;;;;350052;28;1004;-67
2022/10/21 00:57:54;;;;;;;;;;;;;;;;;;349987;28;912;-67
2022/10/21 00:58:04;;;;;;;;;;;;;;;;;;350882;28;1697;-67
2022/10/21 00:58:17;;;;;;;;;;;;;;;;;;351476;28;1086;-67
2022/10/21 00:58:30;;;;;;;;;;;;;;;;;;351482;28;901;-68
2022/10/21 00:58:40;;;;;;;;;;;;;;;;;;351516;28;920;-67
2022/10/21 00:58:52;;;;;;;;;;;;;;;;;;351481;28;932;-67
2022/10/21 00:59:04;;;;;;;;;;;;;;;;;;351185;28;1550;-68
2022/10/21 00:59:14;;;;;;;;;;;;;;;;;;351464;28;1545;-68
2022/10/21 00:59:26;;;;;;;;;;;;;;;;;;351549;28;951;-67
2022/10/21 00:59:41;;;;;;;;;;;;;;;;;;351401;28;2019;-67
2022/10/21 00:59:54;;;;;;;;;;;;;;;;;;352600;28;849;-67
2022/10/21 01:00:04;;;;;;;;;;;;;;;;;;352933;28;925;-67
2022/10/21 01:00:18;;;;;;;;;;;;;;;;;;352892;28;826;-67
2022/10/21 01:00:28;;;;;;;;;;;;;;;;;;352927;28;957;-68
2022/10/21 01:00:39;;;;;;;;;;;;;;;;;;352859;28;1104;-68
2022/10/21 01:00:50;;;;;;;;;;;;;;;;;;352933;28;1007;-68
2022/10/21 01:01:01;;;;;;;;;;;;;;;;;;352902;28;932;-67
2022/10/21 01:01:11;;;;;;;;;;;;;;;;;;352987;28;897;-67
2022/10/21 01:01:21;;;;;;;;;;;;;;;;;;352883;28;904;-67
2022/10/21 01:01:32;;;;;;;;;;;;;;;;;;352936;28;972;-67
2022/10/21 01:01:42;;;;;;;;;;;;;;;;;;352894;28;920;-67
2022/10/21 01:01:52;;;;;;;;;;;;;;;;;;352873;28;924;-67
2022/10/21 01:02:03;;;;;;;;;;;;;;;;;;352911;28;920;-67
2022/10/21 01:02:13;;;;;;;;;;;;;;;;;;352835;28;1084;-68
2022/10/21 01:02:23;;;;;;;;;;;;;;;;;;352952;28;1688;-68
2022/10/21 01:02:33;;;;;;;;;;;;;;;;;;352921;28;908;-67
2022/10/21 01:02:44;;;;;;;;;;;;;;;;;;352932;28;833;-68
2022/10/21 01:02:54;;;;;;;;;;;;;;;;;;352895;28;1003;-67
2022/10/21 01:03:04;;;;;;;;;;;;;;;;;;352886;28;925;-67
2022/10/21 01:03:15;;;;;;;;;;;;;;;;;;352898;28;991;-67
2022/10/21 01:03:26;;;;;;;;;;;;;;;;;;352863;28;1910;-68
2022/10/21 01:03:36;;;;;;;;;;;;;;;;;;352916;28;1023;-67
2022/10/21 01:03:47;;;;;;;;;;;;;;;;;;352827;28;814;-68
2022/10/21 01:04:00;;;;;;;;;;;;;;;;;;352896;28;990;-67
2022/10/21 01:04:10;;;;;;;;;;;;;;;;;;352882;28;908;-68
2022/10/21 01:04:21;;;;;;;;;;;;;;;;;;352919;28;766;-67
2022/10/21 01:04:31;;;;;;;;;;;;;;;;;;352845;28;895;-68
2022/10/21 01:04:42;;;;;;;;;;;;;;;;;;352879;28;1028;-68
2022/10/21 01:04:54;;;;;;;;;;;;;;;;;;352961;28;908;-68
2022/10/21 01:05:04;;;;;;;;;;;;;;;;;;352856;28;973;-68
2022/10/21 01:05:15;;;;;;;;;;;;;;;;;;352873;28;952;-67
2022/10/21 01:05:25;;;;;;;;;;;;;;;;;;352916;28;1003;-68
2022/10/21 01:05:37;;;;;;;;;;;;;;;;;;352907;28;1170;-68
2022/10/21 01:05:47;;;;;;;;;;;;;;;;;;352904;28;940;-68
2022/10/21 01:06:00;;;;;;;;;;;;;;;;;;352721;28;976;-68
2022/10/21 01:06:11;;;;;;;;;;;;;;;;;;352925;28;932;-67
2022/10/21 01:06:23;;;;;;;;;;;;;;;;;;352853;28;929;-68
2022/10/21 01:06:33;;;;;;;;;;;;;;;;;;352895;28;928;-67
2022/10/21 01:06:44;;;;;;;;;;;;;;;;;;352884;28;841;-68
2022/10/21 01:06:54;;;;;;;;;;;;;;;;;;352909;28;928;-67
2022/10/21 01:07:05;;;;;;;;;;;;;;;;;;352872;28;924;-67
2022/10/21 01:07:15;;;;;;;;;;;;;;;;;;352872;28;1020;-68
2022/10/21 01:07:25;;;;;;;;;;;;;;;;;;352812;28;1241;-67
2022/10/21 01:07:35;;;;;;;;;;;;;;;;;;352939;28;908;-67
2022/10/21 01:07:47;;;;;;;;;;;;;;;;;;352917;28;802;-68
2022/10/21 01:07:58;;;;;;;;;;;;;;;;;;352827;28;992;-67
2022/10/21 01:08:08;;;;;;;;;;;;;;;;;;351219;28;1375;-68
2022/10/21 01:08:19;;;;;;;;;;;;;;;;;;349926;28;1293;-67
2022/10/21 01:08:29;;;;;;;;;;;;;;;;;;350107;28;1012;-67
2022/10/21 01:08:39;;;;;;;;;;;;;;;;;;350090;28;1064;-68
2022/10/21 01:08:53;;;;;;;;;;;;;;;;;;350015;28;1015;-67
2022/10/21 01:09:04;;;;;;;;;;;;;;;;;;350099;28;957;-68
2022/10/21 01:09:15;;;;;;;;;;;;;;;;;;350100;28;917;-67
2022/10/21 01:09:25;;;;;;;;;;;;;;;;;;350146;28;845;-67
2022/10/21 01:09:35;;;;;;;;;;;;;;;;;;350069;28;961;-68
2022/10/21 01:09:45;;;;;;;;;;;;;;;;;;350065;28;1306;-68
2022/10/21 01:09:55;;;;;;;;;;;;;;;;;;350121;28;896;-67
2022/10/21 01:10:06;;;;;;;;;;;;;;;;;;350031;28;996;-67
2022/10/21 01:10:16;;;;;;;;;;;;;;;;;;350109;28;924;-67
2022/10/21 01:10:27;;;;;;;;;;;;;;;;;;350104;28;1066;-68
2022/10/21 01:10:38;;;;;;;;;;;;;;;;;;350032;28;941;-68
2022/10/21 01:10:48;;;;;;;;;;;;;;;;;;350141;28;837;-68
2022/10/21 01:10:59;;;;;;;;;;;;;;;;;;350098;28;1020;-68
2022/10/21 01:11:11;;;;;;;;;;;;;;;;;;350076;28;992;-67
2022/10/21 01:11:22;;;;;;;;;;;;;;;;;;350129;28;996;-67
2022/10/21 01:11:38;;;;;;;;;;;;;;;;;;350042;28;920;-68
2022/10/21 01:11:49;;;;;;;;;;;;;;;;;;350123;28;806;-67
2022/10/21 01:12:00;;;;;;;;;;;;;;;;;;350082;28;973;-67
2022/10/21 01:12:19;;;;;;;;;;;;;;;;;;349960;28;1175;-68
2022/10/21 01:12:34;;;;;;;;;;;;;;;;;;350122;28;818;-68
2022/10/21 01:13:06;;;;;;;;;;;;;;;;;;350100;28;925;-67
2022/10/21 01:13:24;;;;;;;;;;;;;;;;;;350103;28;945;-67
2022/10/21 01:13:43;;;;;;;;;;;;;;;;;;350018;28;937;-68
2022/10/21 01:14:00;;;;;;;;;;;;;;;;;;350104;28;912;-68
2022/10/21 01:14:29;;;;;;;;;;;;;;;;;;350040;28;1067;-67
2022/10/21 01:14:49;;;;;;;;;;;;;;;;;;350060;28;969;-68
2022/10/21 01:15:06;;;;;;;;;;;;;;;;;;351478;28;1004;-68
2022/10/21 01:15:34;;;;;;;;;;;;;;;;;;351402;28;1011;-67
2022/10/21 01:15:50;;;;;;;;;;;;;;;;;;351459;28;968;-67
2022/10/21 01:16:08;;;;;;;;;;;;;;;;;;351493;28;991;-67
2022/10/21 01:16:27;;;;;;;;;;;;;;;;;;351409;28;1196;-68
2022/10/21 01:16:56;;;;;;;;;;;;;;;;;;351483;28;1004;-67
2022/10/21 01:17:14;;;;;;;;;;;;;;;;;;351504;28;929;-67
2022/10/21 01:17:25;;;;;;;;;;;;;;;;;;351528;28;916;-67
2022/10/21 01:17:48;;;;;;;;;;;;;;;;;;351446;28;933;-68
2022/10/21 01:18:08;;;;;;;;;;;;;;;;;;351490;28;912;-67
2022/10/21 01:18:23;;;;;;;;;;;;;;;;;;351426;28;992;-67
2022/10/21 01:18:46;;;;;;;;;;;;;;;;;;351474;28;924;-68
2022/10/21 01:19:14;;;;;;;;;;;;;;;;;;351452;28;991;-67
2022/10/21 01:19:43;;;;;;;;;;;;;;;;;;351463;28;987;-67
2022/10/21 01:19:56;;;;;;;;;;;;;;;;;;351467;28;869;-68
2022/10/21 01:20:15;;;;;;;;;;;;;;;;;;351504;28;916;-67
2022/10/21 01:20:25;;;;;;;;;;;;;;;;;;351438;28;937;-68
2022/10/21 01:20:39;;;;;;;;;;;;;;;;;;351416;28;1062;-67
2022/10/21 01:21:12;;;;;;;;;;;;;;;;;;351462;28;940;-67
2022/10/21 01:21:35;;;;;;;;;;;;;;;;;;350884;28;1280;-67
2022/10/21 01:22:01;;;;;;;;;;;;;;;;;;351430;28;1050;-67
2022/10/21 01:22:14;;;;;;;;;;;;;;;;;;351403;28;853;-68
2022/10/21 01:22:43;;;;;;;;;;;;;;;;;;351493;28;965;-68
2022/10/21 01:23:19;;;;;;;;;;;;;;;;;;351481;28;917;-68
2022/10/21 01:23:32;;;;;;;;;;;;;;;;;;351350;28;1886;-68
2022/10/21 01:24:03;;;;;;;;;;;;;;;;;;351469;28;929;-67
2022/10/21 01:24:26;;;;;;;;;;;;;;;;;;351549;28;1021;-67
2022/10/21 01:24:36;;;;;;;;;;;;;;;;;;351381;28;952;-67
2022/10/21 01:24:49;;;;;;;;;;;;;;;;;;351493;28;924;-67
2022/10/21 01:25:02;;;;;;;;;;;;;;;;;;351481;28;920;-67
2022/10/21 01:25:22;;;;;;;;;;;;;;;;;;351419;28;889;-67
2022/10/21 01:25:58;;;;;;;;;;;;;;;;;;351500;28;971;-67
2022/10/21 01:26:08;;;;;;;;;;;;;;;;;;351461;28;861;-67